sensor_id;sensor_type;location;lat;lon;timestamp;temperature;humidity
37806;DHT22;25082;50.870;0.022;2024-01-11T00:01:31;18.80;52.10
37806;DHT22;25082;50.870;0.022;2024-01-11T00:03:57;18.80;52.10
37806;DHT22;25082;50.870;0.022;2024-01-11T00:06:23;18.80;52.10
37806;DHT22;25082;50.870;0.022;2024-01-11T00:08:48;18.80;52.10
37806;DHT22;25082;50.870;0.022;2024-01-11T00:11:14;18.70;52.00
37806;DHT22;25082;50.870;0.022;2024-01-11T00:13:40;18.70;52.00
37806;DHT22;25082;50.870;0.022;2024-01-11T00:16:06;18.70;52.00
37806;DHT22;25082;50.870;0.022;2024-01-11T00:18:31;18.70;51.90
37806;DHT22;25082;50.870;0.022;2024-01-11T00:20:57;18.60;51.90
37806;DHT22;25082;50.870;0.022;2024-01-11T00:23:23;18.60;51.90
37806;DHT22;25082;50.870;0.022;2024-01-11T00:25:49;18.60;51.90
37806;DHT22;25082;50.870;0.022;2024-01-11T00:28:15;18.60;51.80
37806;DHT22;25082;50.870;0.022;2024-01-11T00:30:40;18.50;51.80
37806;DHT22;25082;50.870;0.022;2024-01-11T00:33:06;18.60;51.70
37806;DHT22;25082;50.870;0.022;2024-01-11T00:35:32;18.50;51.70
37806;DHT22;25082;50.870;0.022;2024-01-11T00:37:58;18.50;51.80
37806;DHT22;25082;50.870;0.022;2024-01-11T00:40:23;18.40;51.60
37806;DHT22;25082;50.870;0.022;2024-01-11T00:42:49;18.40;51.60
37806;DHT22;25082;50.870;0.022;2024-01-11T00:45:15;18.40;51.60
37806;DHT22;25082;50.870;0.022;2024-01-11T00:47:41;18.40;51.70
37806;DHT22;25082;50.870;0.022;2024-01-11T00:50:07;18.40;51.60
37806;DHT22;25082;50.870;0.022;2024-01-11T00:52:32;18.40;51.60
37806;DHT22;25082;50.870;0.022;2024-01-11T00:54:58;18.30;51.50
37806;DHT22;25082;50.870;0.022;2024-01-11T00:57:24;18.30;51.50
37806;DHT22;25082;50.870;0.022;2024-01-11T00:59:50;18.30;51.50
37806;DHT22;25082;50.870;0.022;2024-01-11T01:02:15;18.30;51.50
37806;DHT22;25082;50.870;0.022;2024-01-11T01:04:41;18.30;51.50
37806;DHT22;25082;50.870;0.022;2024-01-11T01:07:07;18.20;51.40
37806;DHT22;25082;50.870;0.022;2024-01-11T01:09:33;18.20;51.40
37806;DHT22;25082;50.870;0.022;2024-01-11T01:11:59;18.20;51.40
37806;DHT22;25082;50.870;0.022;2024-01-11T01:14:24;18.20;51.50
37806;DHT22;25082;50.870;0.022;2024-01-11T01:16:50;18.20;51.40
37806;DHT22;25082;50.870;0.022;2024-01-11T01:19:16;18.10;51.50
37806;DHT22;25082;50.870;0.022;2024-01-11T01:21:42;18.10;51.40
37806;DHT22;25082;50.870;0.022;2024-01-11T01:24:07;18.10;51.40
37806;DHT22;25082;50.870;0.022;2024-01-11T01:26:33;18.10;51.50
37806;DHT22;25082;50.870;0.022;2024-01-11T01:28:59;18.10;51.50
37806;DHT22;25082;50.870;0.022;2024-01-11T01:31:25;18.00;51.50
37806;DHT22;25082;50.870;0.022;2024-01-11T01:33:50;18.00;51.60
37806;DHT22;25082;50.870;0.022;2024-01-11T01:36:16;18.00;51.50
37806;DHT22;25082;50.870;0.022;2024-01-11T01:38:42;18.00;51.50
37806;DHT22;25082;50.870;0.022;2024-01-11T01:41:08;17.90;51.50
37806;DHT22;25082;50.870;0.022;2024-01-11T01:43:34;17.90;51.60
37806;DHT22;25082;50.870;0.022;2024-01-11T01:46:00;17.90;51.60
37806;DHT22;25082;50.870;0.022;2024-01-11T01:48:26;17.90;51.60
37806;DHT22;25082;50.870;0.022;2024-01-11T01:50:53;17.90;51.60
37806;DHT22;25082;50.870;0.022;2024-01-11T01:53:21;17.80;51.60
37806;DHT22;25082;50.870;0.022;2024-01-11T01:55:47;17.80;52.10
37806;DHT22;25082;50.870;0.022;2024-01-11T01:58:15;17.80;51.60
37806;DHT22;25082;50.870;0.022;2024-01-11T02:00:41;17.70;51.50
37806;DHT22;25082;50.870;0.022;2024-01-11T02:03:09;17.70;51.50
37806;DHT22;25082;50.870;0.022;2024-01-11T02:05:35;17.70;51.60
37806;DHT22;25082;50.870;0.022;2024-01-11T02:08:03;17.70;51.50
37806;DHT22;25082;50.870;0.022;2024-01-11T02:10:33;17.70;51.60
37806;DHT22;25082;50.870;0.022;2024-01-11T02:13:01;17.70;51.70
37806;DHT22;25082;50.870;0.022;2024-01-11T02:15:26;17.60;51.50
37806;DHT22;25082;50.870;0.022;2024-01-11T02:17:52;17.60;51.50
37806;DHT22;25082;50.870;0.022;2024-01-11T02:20:18;17.60;51.70
37806;DHT22;25082;50.870;0.022;2024-01-11T02:22:49;17.60;51.60
37806;DHT22;25082;50.870;0.022;2024-01-11T02:25:16;17.60;51.70
37806;DHT22;25082;50.870;0.022;2024-01-11T02:27:48;17.50;51.50
37806;DHT22;25082;50.870;0.022;2024-01-11T02:30:14;17.50;51.60
37806;DHT22;25082;50.870;0.022;2024-01-11T02:32:41;17.50;51.50
37806;DHT22;25082;50.870;0.022;2024-01-11T02:35:08;17.40;51.50
37806;DHT22;25082;50.870;0.022;2024-01-11T02:37:36;17.40;51.50
37806;DHT22;25082;50.870;0.022;2024-01-11T02:40:02;17.40;51.50
37806;DHT22;25082;50.870;0.022;2024-01-11T02:42:28;17.40;51.50
37806;DHT22;25082;50.870;0.022;2024-01-11T02:44:54;17.40;51.50
37806;DHT22;25082;50.870;0.022;2024-01-11T02:47:19;17.40;51.50
37806;DHT22;25082;50.870;0.022;2024-01-11T02:49:45;17.30;51.50
37806;DHT22;25082;50.870;0.022;2024-01-11T02:52:11;17.30;51.50
37806;DHT22;25082;50.870;0.022;2024-01-11T02:54:37;17.30;51.50
37806;DHT22;25082;50.870;0.022;2024-01-11T02:57:02;17.30;51.50
37806;DHT22;25082;50.870;0.022;2024-01-11T02:59:28;17.30;51.60
37806;DHT22;25082;50.870;0.022;2024-01-11T03:01:54;17.20;51.50
37806;DHT22;25082;50.870;0.022;2024-01-11T03:04:20;17.20;51.50
37806;DHT22;25082;50.870;0.022;2024-01-11T03:06:46;17.20;51.40
37806;DHT22;25082;50.870;0.022;2024-01-11T03:09:11;17.20;51.40
37806;DHT22;25082;50.870;0.022;2024-01-11T03:11:37;17.20;51.40
37806;DHT22;25082;50.870;0.022;2024-01-11T03:14:03;17.20;51.50
37806;DHT22;25082;50.870;0.022;2024-01-11T03:16:29;17.10;51.40
37806;DHT22;25082;50.870;0.022;2024-01-11T03:18:55;17.10;51.40
37806;DHT22;25082;50.870;0.022;2024-01-11T03:21:21;17.10;51.40
37806;DHT22;25082;50.870;0.022;2024-01-11T03:23:46;17.10;51.40
37806;DHT22;25082;50.870;0.022;2024-01-11T03:26:14;17.10;51.50
37806;DHT22;25082;50.870;0.022;2024-01-11T03:28:40;17.10;51.40
37806;DHT22;25082;50.870;0.022;2024-01-11T03:31:06;17.10;51.40
37806;DHT22;25082;50.870;0.022;2024-01-11T03:33:32;17.00;51.30
37806;DHT22;25082;50.870;0.022;2024-01-11T03:35:58;17.00;51.30
37806;DHT22;25082;50.870;0.022;2024-01-11T03:38:24;17.00;51.30
37806;DHT22;25082;50.870;0.022;2024-01-11T03:40:49;17.00;51.30
37806;DHT22;25082;50.870;0.022;2024-01-11T03:43:17;17.00;51.30
37806;DHT22;25082;50.870;0.022;2024-01-11T03:45:43;17.00;51.30
37806;DHT22;25082;50.870;0.022;2024-01-11T03:48:09;17.00;51.40
37806;DHT22;25082;50.870;0.022;2024-01-11T03:50:35;16.90;51.30
37806;DHT22;25082;50.870;0.022;2024-01-11T03:53:00;16.90;51.30
37806;DHT22;25082;50.870;0.022;2024-01-11T03:55:26;16.90;51.30
37806;DHT22;25082;50.870;0.022;2024-01-11T03:57:53;16.90;51.30
37806;DHT22;25082;50.870;0.022;2024-01-11T04:00:18;16.90;51.30
37806;DHT22;25082;50.870;0.022;2024-01-11T04:02:45;16.80;51.20
37806;DHT22;25082;50.870;0.022;2024-01-11T04:05:10;16.80;51.20
37806;DHT22;25082;50.870;0.022;2024-01-11T04:07:36;16.90;51.30
37806;DHT22;25082;50.870;0.022;2024-01-11T04:10:02;16.80;51.20
37806;DHT22;25082;50.870;0.022;2024-01-11T04:12:28;16.80;51.20
37806;DHT22;25082;50.870;0.022;2024-01-11T04:14:54;16.80;51.20
37806;DHT22;25082;50.870;0.022;2024-01-11T04:17:19;16.80;51.20
37806;DHT22;25082;50.870;0.022;2024-01-11T04:19:45;16.80;51.20
37806;DHT22;25082;50.870;0.022;2024-01-11T04:22:11;16.70;51.10
37806;DHT22;25082;50.870;0.022;2024-01-11T04:24:37;16.70;51.20
37806;DHT22;25082;50.870;0.022;2024-01-11T04:27:03;16.70;51.20
37806;DHT22;25082;50.870;0.022;2024-01-11T04:29:28;16.60;51.10
37806;DHT22;25082;50.870;0.022;2024-01-11T04:31:54;16.70;51.20
37806;DHT22;25082;50.870;0.022;2024-01-11T04:34:20;16.70;51.20
37806;DHT22;25082;50.870;0.022;2024-01-11T04:36:45;16.60;51.20
37806;DHT22;25082;50.870;0.022;2024-01-11T04:39:11;16.60;51.20
37806;DHT22;25082;50.870;0.022;2024-01-11T04:41:37;16.60;51.10
37806;DHT22;25082;50.870;0.022;2024-01-11T04:44:03;16.60;51.10
37806;DHT22;25082;50.870;0.022;2024-01-11T04:46:29;16.60;51.10
37806;DHT22;25082;50.870;0.022;2024-01-11T04:48:55;16.60;51.20
37806;DHT22;25082;50.870;0.022;2024-01-11T04:51:21;16.60;51.10
37806;DHT22;25082;50.870;0.022;2024-01-11T04:53:46;16.50;51.10
37806;DHT22;25082;50.870;0.022;2024-01-11T04:56:14;16.50;51.10
37806;DHT22;25082;50.870;0.022;2024-01-11T04:58:41;16.50;51.00
37806;DHT22;25082;50.870;0.022;2024-01-11T05:01:14;16.50;51.10
37806;DHT22;25082;50.870;0.022;2024-01-11T05:03:41;16.50;51.10
37806;DHT22;25082;50.870;0.022;2024-01-11T05:06:07;16.50;51.00
37806;DHT22;25082;50.870;0.022;2024-01-11T05:08:33;16.40;51.10
37806;DHT22;25082;50.870;0.022;2024-01-11T05:10:59;16.40;51.00
37806;DHT22;25082;50.870;0.022;2024-01-11T05:13:24;16.40;51.00
37806;DHT22;25082;50.870;0.022;2024-01-11T05:15:51;16.40;51.00
37806;DHT22;25082;50.870;0.022;2024-01-11T05:18:16;16.40;51.00
37806;DHT22;25082;50.870;0.022;2024-01-11T05:20:42;16.40;51.00
37806;DHT22;25082;50.870;0.022;2024-01-11T05:23:08;16.30;51.00
37806;DHT22;25082;50.870;0.022;2024-01-11T05:25:34;16.30;51.00
37806;DHT22;25082;50.870;0.022;2024-01-11T05:28:01;16.30;51.00
37806;DHT22;25082;50.870;0.022;2024-01-11T05:30:27;16.30;51.00
37806;DHT22;25082;50.870;0.022;2024-01-11T05:32:56;16.30;51.00
37806;DHT22;25082;50.870;0.022;2024-01-11T05:35:22;16.30;51.00
37806;DHT22;25082;50.870;0.022;2024-01-11T05:37:53;16.30;51.00
37806;DHT22;25082;50.870;0.022;2024-01-11T05:40:20;16.30;51.00
37806;DHT22;25082;50.870;0.022;2024-01-11T05:42:46;16.20;51.00
37806;DHT22;25082;50.870;0.022;2024-01-11T05:45:12;16.20;50.90
37806;DHT22;25082;50.870;0.022;2024-01-11T05:47:38;16.20;51.00
37806;DHT22;25082;50.870;0.022;2024-01-11T05:50:04;16.20;50.90
37806;DHT22;25082;50.870;0.022;2024-01-11T05:52:30;16.20;50.90
37806;DHT22;25082;50.870;0.022;2024-01-11T05:54:56;16.20;51.00
37806;DHT22;25082;50.870;0.022;2024-01-11T05:57:22;16.20;51.00
37806;DHT22;25082;50.870;0.022;2024-01-11T05:59:48;16.20;51.00
37806;DHT22;25082;50.870;0.022;2024-01-11T06:02:14;16.20;51.00
37806;DHT22;25082;50.870;0.022;2024-01-11T06:04:40;16.20;51.00
37806;DHT22;25082;50.870;0.022;2024-01-11T06:07:06;16.10;50.90
37806;DHT22;25082;50.870;0.022;2024-01-11T06:09:31;16.10;51.00
37806;DHT22;25082;50.870;0.022;2024-01-11T06:11:57;16.10;51.00
37806;DHT22;25082;50.870;0.022;2024-01-11T06:14:23;16.00;50.90
37806;DHT22;25082;50.870;0.022;2024-01-11T06:16:49;16.00;50.90
37806;DHT22;25082;50.870;0.022;2024-01-11T06:19:14;16.10;51.00
37806;DHT22;25082;50.870;0.022;2024-01-11T06:21:40;16.00;51.00
37806;DHT22;25082;50.870;0.022;2024-01-11T06:24:06;16.00;50.90
37806;DHT22;25082;50.870;0.022;2024-01-11T06:26:32;16.00;50.90
37806;DHT22;25082;50.870;0.022;2024-01-11T06:28:58;16.10;51.10
37806;DHT22;25082;50.870;0.022;2024-01-11T06:31:24;16.00;51.10
37806;DHT22;25082;50.870;0.022;2024-01-11T06:33:49;16.00;51.00
37806;DHT22;25082;50.870;0.022;2024-01-11T06:36:15;16.00;51.00
37806;DHT22;25082;50.870;0.022;2024-01-11T06:38:41;16.00;50.90
37806;DHT22;25082;50.870;0.022;2024-01-11T06:41:07;16.00;51.00
37806;DHT22;25082;50.870;0.022;2024-01-11T06:43:32;16.10;51.00
37806;DHT22;25082;50.870;0.022;2024-01-11T06:46:03;16.10;50.90
37806;DHT22;25082;50.870;0.022;2024-01-11T06:48:29;16.10;51.50
37806;DHT22;25082;50.870;0.022;2024-01-11T06:50:55;16.10;50.80
37806;DHT22;25082;50.870;0.022;2024-01-11T06:53:21;16.00;50.80
37806;DHT22;25082;50.870;0.022;2024-01-11T06:55:46;16.10;50.90
37806;DHT22;25082;50.870;0.022;2024-01-11T06:58:13;16.00;50.70
37806;DHT22;25082;50.870;0.022;2024-01-11T07:00:39;16.10;50.90
37806;DHT22;25082;50.870;0.022;2024-01-11T07:03:11;16.00;50.80
37806;DHT22;25082;50.870;0.022;2024-01-11T07:05:37;16.00;50.90
37806;DHT22;25082;50.870;0.022;2024-01-11T07:08:03;16.00;50.80
37806;DHT22;25082;50.870;0.022;2024-01-11T07:10:29;16.00;51.50
37806;DHT22;25082;50.870;0.022;2024-01-11T07:12:55;16.00;50.90
37806;DHT22;25082;50.870;0.022;2024-01-11T07:15:21;16.00;50.90
37806;DHT22;25082;50.870;0.022;2024-01-11T07:17:47;16.00;50.90
37806;DHT22;25082;50.870;0.022;2024-01-11T07:20:13;16.00;51.00
37806;DHT22;25082;50.870;0.022;2024-01-11T07:22:41;15.90;50.90
37806;DHT22;25082;50.870;0.022;2024-01-11T07:25:07;15.90;50.80
37806;DHT22;25082;50.870;0.022;2024-01-11T07:27:33;15.90;50.90
37806;DHT22;25082;50.870;0.022;2024-01-11T07:30:00;15.90;50.90
37806;DHT22;25082;50.870;0.022;2024-01-11T07:32:28;15.80;50.80
37806;DHT22;25082;50.870;0.022;2024-01-11T07:34:53;15.80;50.70
37806;DHT22;25082;50.870;0.022;2024-01-11T07:37:19;15.80;50.80
37806;DHT22;25082;50.870;0.022;2024-01-11T07:39:45;15.80;50.80
37806;DHT22;25082;50.870;0.022;2024-01-11T07:42:11;15.80;50.80
37806;DHT22;25082;50.870;0.022;2024-01-11T07:44:37;15.80;50.90
37806;DHT22;25082;50.870;0.022;2024-01-11T07:47:03;15.80;50.90
37806;DHT22;25082;50.870;0.022;2024-01-11T07:49:28;15.70;50.80
37806;DHT22;25082;50.870;0.022;2024-01-11T07:51:54;15.70;50.80
37806;DHT22;25082;50.870;0.022;2024-01-11T07:54:20;15.70;50.90
37806;DHT22;25082;50.870;0.022;2024-01-11T07:56:46;15.70;50.90
37806;DHT22;25082;50.870;0.022;2024-01-11T07:59:11;15.70;51.00
37806;DHT22;25082;50.870;0.022;2024-01-11T08:01:40;15.70;50.90
37806;DHT22;25082;50.870;0.022;2024-01-11T08:04:06;15.60;51.00
37806;DHT22;25082;50.870;0.022;2024-01-11T08:06:31;15.70;51.10
37806;DHT22;25082;50.870;0.022;2024-01-11T08:08:57;15.70;51.10
37806;DHT22;25082;50.870;0.022;2024-01-11T08:11:23;15.70;51.10
37806;DHT22;25082;50.870;0.022;2024-01-11T08:13:49;15.80;51.00
37806;DHT22;25082;50.870;0.022;2024-01-11T08:16:16;15.80;51.00
37806;DHT22;25082;50.870;0.022;2024-01-11T08:18:42;15.80;50.90
37806;DHT22;25082;50.870;0.022;2024-01-11T08:21:09;15.90;51.00
37806;DHT22;25082;50.870;0.022;2024-01-11T08:23:39;15.90;50.80
37806;DHT22;25082;50.870;0.022;2024-01-11T08:26:06;15.90;50.80
37806;DHT22;25082;50.870;0.022;2024-01-11T08:28:31;15.90;50.80
37806;DHT22;25082;50.870;0.022;2024-01-11T08:30:57;15.90;50.70
37806;DHT22;25082;50.870;0.022;2024-01-11T08:33:23;15.90;50.70
37806;DHT22;25082;50.870;0.022;2024-01-11T08:35:49;15.90;50.80
37806;DHT22;25082;50.870;0.022;2024-01-11T08:38:15;15.90;51.00
37806;DHT22;25082;50.870;0.022;2024-01-11T08:40:41;15.90;50.80
37806;DHT22;25082;50.870;0.022;2024-01-11T08:43:06;15.90;51.70
37806;DHT22;25082;50.870;0.022;2024-01-11T08:45:32;15.90;50.80
37806;DHT22;25082;50.870;0.022;2024-01-11T08:47:58;15.90;50.80
37806;DHT22;25082;50.870;0.022;2024-01-11T08:50:24;16.00;50.80
37806;DHT22;25082;50.870;0.022;2024-01-11T08:52:49;15.90;50.60
37806;DHT22;25082;50.870;0.022;2024-01-11T08:55:15;16.00;51.20
37806;DHT22;25082;50.870;0.022;2024-01-11T08:57:41;16.00;50.60
37806;DHT22;25082;50.870;0.022;2024-01-11T09:00:07;16.00;50.60
37806;DHT22;25082;50.870;0.022;2024-01-11T09:02:33;16.00;50.60
37806;DHT22;25082;50.870;0.022;2024-01-11T09:04:59;16.00;50.60
37806;DHT22;25082;50.870;0.022;2024-01-11T09:07:25;16.00;50.70
37806;DHT22;25082;50.870;0.022;2024-01-11T09:09:51;16.00;50.70
37806;DHT22;25082;50.870;0.022;2024-01-11T09:12:16;16.00;50.70
37806;DHT22;25082;50.870;0.022;2024-01-11T09:14:42;16.00;50.70
37806;DHT22;25082;50.870;0.022;2024-01-11T09:17:09;16.10;50.70
37806;DHT22;25082;50.870;0.022;2024-01-11T09:19:34;16.10;50.70
37806;DHT22;25082;50.870;0.022;2024-01-11T09:22:00;16.10;50.70
37806;DHT22;25082;50.870;0.022;2024-01-11T09:24:26;16.10;50.70
37806;DHT22;25082;50.870;0.022;2024-01-11T09:26:52;16.10;50.70
37806;DHT22;25082;50.870;0.022;2024-01-11T09:29:18;16.10;50.70
37806;DHT22;25082;50.870;0.022;2024-01-11T09:31:44;16.10;51.00
37806;DHT22;25082;50.870;0.022;2024-01-11T09:34:10;16.10;51.20
37806;DHT22;25082;50.870;0.022;2024-01-11T09:36:36;16.10;51.80
37806;DHT22;25082;50.870;0.022;2024-01-11T09:39:04;16.10;52.20
37806;DHT22;25082;50.870;0.022;2024-01-11T09:41:31;16.20;53.00
37806;DHT22;25082;50.870;0.022;2024-01-11T09:44:00;16.10;53.20
37806;DHT22;25082;50.870;0.022;2024-01-11T09:46:27;16.20;53.40
37806;DHT22;25082;50.870;0.022;2024-01-11T09:48:54;16.20;53.90
37806;DHT22;25082;50.870;0.022;2024-01-11T09:51:21;16.20;53.90
37806;DHT22;25082;50.870;0.022;2024-01-11T09:53:47;16.20;53.80
37806;DHT22;25082;50.870;0.022;2024-01-11T09:56:16;16.20;53.90
37806;DHT22;25082;50.870;0.022;2024-01-11T09:58:46;16.20;54.00
37806;DHT22;25082;50.870;0.022;2024-01-11T10:01:16;16.20;54.00
37806;DHT22;25082;50.870;0.022;2024-01-11T10:03:43;16.20;54.10
37806;DHT22;25082;50.870;0.022;2024-01-11T10:06:10;16.30;54.30
37806;DHT22;25082;50.870;0.022;2024-01-11T10:08:36;16.30;54.50
37806;DHT22;25082;50.870;0.022;2024-01-11T10:11:02;16.30;54.50
37806;DHT22;25082;50.870;0.022;2024-01-11T10:13:29;16.30;54.50
37806;DHT22;25082;50.870;0.022;2024-01-11T10:16:05;16.30;54.70
37806;DHT22;25082;50.870;0.022;2024-01-11T10:18:32;16.10;50.70
37806;DHT22;25082;50.870;0.022;2024-01-11T10:20:57;16.20;53.40
37806;DHT22;25082;50.870;0.022;2024-01-11T10:23:23;16.20;53.70
37806;DHT22;25082;50.870;0.022;2024-01-11T10:25:49;16.20;53.80
37806;DHT22;25082;50.870;0.022;2024-01-11T10:28:15;16.20;53.80
37806;DHT22;25082;50.870;0.022;2024-01-11T10:30:45;16.30;53.90
37806;DHT22;25082;50.870;0.022;2024-01-11T10:33:11;16.30;53.90
37806;DHT22;25082;50.870;0.022;2024-01-11T10:35:36;16.30;53.90
37806;DHT22;25082;50.870;0.022;2024-01-11T10:38:06;16.30;54.00
37806;DHT22;25082;50.870;0.022;2024-01-11T10:40:34;16.30;54.00
37806;DHT22;25082;50.870;0.022;2024-01-11T10:43:02;16.30;54.00
37806;DHT22;25082;50.870;0.022;2024-01-11T10:45:31;16.40;54.20
37806;DHT22;25082;50.870;0.022;2024-01-11T10:48:07;16.40;54.20
37806;DHT22;25082;50.870;0.022;2024-01-11T10:50:37;16.40;54.30
37806;DHT22;25082;50.870;0.022;2024-01-11T10:55:50;16.50;54.40
37806;DHT22;25082;50.870;0.022;2024-01-11T10:58:16;16.50;54.50
37806;DHT22;25082;50.870;0.022;2024-01-11T11:00:44;16.50;54.50
37806;DHT22;25082;50.870;0.022;2024-01-11T11:03:11;16.50;54.60
37806;DHT22;25082;50.870;0.022;2024-01-11T11:05:38;16.50;54.60
37806;DHT22;25082;50.870;0.022;2024-01-11T11:08:05;16.60;54.70
37806;DHT22;25082;50.870;0.022;2024-01-11T11:10:34;16.60;54.70
37806;DHT22;25082;50.870;0.022;2024-01-11T11:13:00;16.60;54.70
37806;DHT22;25082;50.870;0.022;2024-01-11T11:15:29;16.70;54.80
37806;DHT22;25082;50.870;0.022;2024-01-11T11:17:55;16.70;54.80
37806;DHT22;25082;50.870;0.022;2024-01-11T11:20:22;16.70;54.80
37806;DHT22;25082;50.870;0.022;2024-01-11T11:23:04;16.80;54.90
37806;DHT22;25082;50.870;0.022;2024-01-11T11:25:30;16.70;54.40
37806;DHT22;25082;50.870;0.022;2024-01-11T11:27:57;16.70;54.80
37806;DHT22;25082;50.870;0.022;2024-01-11T11:30:22;16.70;54.90
37806;DHT22;25082;50.870;0.022;2024-01-11T11:32:48;16.80;55.00
37806;DHT22;25082;50.870;0.022;2024-01-11T11:35:14;16.80;55.00
37806;DHT22;25082;50.870;0.022;2024-01-11T11:37:40;16.80;55.10
37806;DHT22;25082;50.870;0.022;2024-01-11T11:40:09;16.90;55.20
37806;DHT22;25082;50.870;0.022;2024-01-11T11:42:39;16.90;55.80
37806;DHT22;25082;50.870;0.022;2024-01-11T11:45:07;17.00;55.30
37806;DHT22;25082;50.870;0.022;2024-01-11T11:47:36;16.90;55.30
37806;DHT22;25082;50.870;0.022;2024-01-11T11:52:39;17.00;55.40
37806;DHT22;25082;50.870;0.022;2024-01-11T11:55:08;17.10;55.50
37806;DHT22;25082;50.870;0.022;2024-01-11T11:57:35;17.10;55.50
37806;DHT22;25082;50.870;0.022;2024-01-11T12:00:02;17.10;55.50
37806;DHT22;25082;50.870;0.022;2024-01-11T12:02:32;17.10;55.60
37806;DHT22;25082;50.870;0.022;2024-01-11T12:04:58;17.20;55.60
37806;DHT22;25082;50.870;0.022;2024-01-11T12:07:24;17.20;55.70
37806;DHT22;25082;50.870;0.022;2024-01-11T12:09:51;17.20;55.70
37806;DHT22;25082;50.870;0.022;2024-01-11T12:12:18;17.30;55.90
37806;DHT22;25082;50.870;0.022;2024-01-11T12:14:49;17.30;55.80
37806;DHT22;25082;50.870;0.022;2024-01-11T12:17:15;17.40;55.80
37806;DHT22;25082;50.870;0.022;2024-01-11T12:19:41;17.40;55.80
37806;DHT22;25082;50.870;0.022;2024-01-11T12:22:07;17.40;55.70
37806;DHT22;25082;50.870;0.022;2024-01-11T12:24:34;17.40;55.80
37806;DHT22;25082;50.870;0.022;2024-01-11T12:27:00;17.40;55.80
37806;DHT22;25082;50.870;0.022;2024-01-11T12:29:29;17.40;55.80
37806;DHT22;25082;50.870;0.022;2024-01-11T12:31:59;17.40;55.80
37806;DHT22;25082;50.870;0.022;2024-01-11T12:34:26;17.50;55.90
37806;DHT22;25082;50.870;0.022;2024-01-11T12:36:53;17.50;56.00
37806;DHT22;25082;50.870;0.022;2024-01-11T12:39:26;17.50;56.00
37806;DHT22;25082;50.870;0.022;2024-01-11T12:41:54;17.50;56.00
37806;DHT22;25082;50.870;0.022;2024-01-11T12:44:23;17.50;56.00
37806;DHT22;25082;50.870;0.022;2024-01-11T12:46:51;17.60;56.10
37806;DHT22;25082;50.870;0.022;2024-01-11T12:49:18;17.50;56.10
37806;DHT22;25082;50.870;0.022;2024-01-11T12:51:43;17.50;56.10
37806;DHT22;25082;50.870;0.022;2024-01-11T12:54:13;17.70;56.20
37806;DHT22;25082;50.870;0.022;2024-01-11T12:56:45;17.80;55.70
37806;DHT22;25082;50.870;0.022;2024-01-11T12:59:11;17.80;55.50
37806;DHT22;25082;50.870;0.022;2024-01-11T13:01:40;17.80;55.60
37806;DHT22;25082;50.870;0.022;2024-01-11T13:04:09;17.80;55.80
37806;DHT22;25082;50.870;0.022;2024-01-11T13:06:35;17.80;55.90
37806;DHT22;25082;50.870;0.022;2024-01-11T13:09:02;17.80;56.00
37806;DHT22;25082;50.870;0.022;2024-01-11T13:11:28;17.80;56.10
37806;DHT22;25082;50.870;0.022;2024-01-11T13:13:54;17.80;56.10
37806;DHT22;25082;50.870;0.022;2024-01-11T13:16:20;17.90;56.20
37806;DHT22;25082;50.870;0.022;2024-01-11T13:18:46;17.80;56.20
37806;DHT22;25082;50.870;0.022;2024-01-11T13:21:13;17.90;56.30
37806;DHT22;25082;50.870;0.022;2024-01-11T13:23:39;17.90;56.30
37806;DHT22;25082;50.870;0.022;2024-01-11T13:26:06;17.90;56.20
37806;DHT22;25082;50.870;0.022;2024-01-11T13:28:33;18.00;56.30
37806;DHT22;25082;50.870;0.022;2024-01-11T13:30:59;18.00;56.50
37806;DHT22;25082;50.870;0.022;2024-01-11T13:33:25;18.00;56.50
37806;DHT22;25082;50.870;0.022;2024-01-11T13:35:51;18.00;56.50
37806;DHT22;25082;50.870;0.022;2024-01-11T13:38:18;18.00;56.50
37806;DHT22;25082;50.870;0.022;2024-01-11T13:40:43;18.00;56.40
37806;DHT22;25082;50.870;0.022;2024-01-11T13:43:10;18.00;56.40
37806;DHT22;25082;50.870;0.022;2024-01-11T13:45:36;18.00;56.40
37806;DHT22;25082;50.870;0.022;2024-01-11T13:48:03;18.00;56.50
37806;DHT22;25082;50.870;0.022;2024-01-11T13:50:29;18.00;57.00
37806;DHT22;25082;50.870;0.022;2024-01-11T13:52:55;18.10;56.30
37806;DHT22;25082;50.870;0.022;2024-01-11T13:55:21;18.10;56.30
37806;DHT22;25082;50.870;0.022;2024-01-11T13:57:51;18.10;56.20
37806;DHT22;25082;50.870;0.022;2024-01-11T14:00:18;18.10;56.20
37806;DHT22;25082;50.870;0.022;2024-01-11T14:02:47;18.10;56.20
37806;DHT22;25082;50.870;0.022;2024-01-11T14:05:14;18.10;56.20
37806;DHT22;25082;50.870;0.022;2024-01-11T14:07:43;18.10;56.30
37806;DHT22;25082;50.870;0.022;2024-01-11T14:10:13;18.10;56.30
37806;DHT22;25082;50.870;0.022;2024-01-11T14:12:39;18.10;56.30
37806;DHT22;25082;50.870;0.022;2024-01-11T14:15:07;18.10;56.30
37806;DHT22;25082;50.870;0.022;2024-01-11T14:17:37;18.10;56.40
37806;DHT22;25082;50.870;0.022;2024-01-11T14:20:03;18.10;56.50
37806;DHT22;25082;50.870;0.022;2024-01-11T14:22:30;18.10;56.50
37806;DHT22;25082;50.870;0.022;2024-01-11T14:24:55;18.10;56.60
37806;DHT22;25082;50.870;0.022;2024-01-11T14:27:21;18.10;56.40
37806;DHT22;25082;50.870;0.022;2024-01-11T14:29:48;18.10;56.60
37806;DHT22;25082;50.870;0.022;2024-01-11T14:32:15;18.10;56.50
37806;DHT22;25082;50.870;0.022;2024-01-11T14:34:44;18.10;56.40
37806;DHT22;25082;50.870;0.022;2024-01-11T14:37:13;18.10;56.40
37806;DHT22;25082;50.870;0.022;2024-01-11T14:39:40;18.10;56.40
37806;DHT22;25082;50.870;0.022;2024-01-11T14:42:06;18.10;56.40
37806;DHT22;25082;50.870;0.022;2024-01-11T14:44:35;18.10;54.50
37806;DHT22;25082;50.870;0.022;2024-01-11T14:47:02;18.00;55.80
37806;DHT22;25082;50.870;0.022;2024-01-11T14:49:28;18.00;55.90
37806;DHT22;25082;50.870;0.022;2024-01-11T14:51:55;18.00;55.80
37806;DHT22;25082;50.870;0.022;2024-01-11T14:54:21;18.00;55.80
37806;DHT22;25082;50.870;0.022;2024-01-11T14:56:47;18.00;55.80
37806;DHT22;25082;50.870;0.022;2024-01-11T14:59:13;18.00;55.80
37806;DHT22;25082;50.870;0.022;2024-01-11T15:01:39;18.00;55.80
37806;DHT22;25082;50.870;0.022;2024-01-11T15:04:05;18.00;55.80
37806;DHT22;25082;50.870;0.022;2024-01-11T15:06:31;18.10;55.80
37806;DHT22;25082;50.870;0.022;2024-01-11T15:08:57;18.10;55.80
37806;DHT22;25082;50.870;0.022;2024-01-11T15:11:23;18.10;55.80
37806;DHT22;25082;50.870;0.022;2024-01-11T15:13:49;18.10;55.70
37806;DHT22;25082;50.870;0.022;2024-01-11T15:16:15;18.10;55.80
37806;DHT22;25082;50.870;0.022;2024-01-11T15:18:41;18.10;55.70
37806;DHT22;25082;50.870;0.022;2024-01-11T15:21:07;18.10;55.70
37806;DHT22;25082;50.870;0.022;2024-01-11T15:23:33;18.10;52.60
37806;DHT22;25082;50.870;0.022;2024-01-11T15:26:00;18.00;54.60
37806;DHT22;25082;50.870;0.022;2024-01-11T15:28:27;18.00;55.20
37806;DHT22;25082;50.870;0.022;2024-01-11T15:30:53;18.00;55.20